Time;durP1;ratioP1;P1;durP2;ratioP2;P2;SDS_P1;SDS_P2;PMS_P1;PMS_P2;Temp;Humidity;BMP_temperature;BMP_pressure;BME280_temperature;BME280_humidity;BME280_pressure;Samples;Min_cycle;Max_cycle;Signal;HPM_P1;HPM_P2
2022/10/18 00:00:39;;;;;;;44.22;19.15;;;10.90;99.90;;;;;;6311400;22;19999;-79
2022/10/18 00:03:05;;;;;;;36.15;18.35;;;10.90;99.90;;;;;;6338807;22;20408;-81
2022/10/18 00:05:34;;;;;;;42.65;18.23;;;10.90;99.90;;;;;;6311011;22;20003;-80
2022/10/18 00:08:00;;;;;;;35.88;19.13;;;10.80;99.90;;;;;;6338611;22;20006;-82
2022/10/18 00:10:27;;;;;;;34.65;18.35;;;10.90;99.90;;;;;;6338818;22;20350;-81
2022/10/18 00:12:52;;;;;;;38.58;19.17;;;10.90;99.90;;;;;;6338817;22;19987;-79
2022/10/18 00:15:18;;;;;;;39.50;18.90;;;10.90;99.90;;;;;;6339000;22;19999;-80
2022/10/18 00:17:44;;;;;;;38.40;18.65;;;10.80;99.90;;;;;;6338387;22;20411;-79
2022/10/18 00:20:10;;;;;;;36.97;17.90;;;10.80;99.90;;;;;;6338738;22;20017;-78
2022/10/18 00:22:38;;;;;;;41.53;18.88;;;10.80;99.90;;;;;;6338885;22;20002;-78
2022/10/18 00:25:05;;;;;;;43.30;19.52;;;10.80;99.90;;;;;;6338377;22;20353;-79
2022/10/18 00:27:32;;;;;;;45.45;20.42;;;10.80;99.90;;;;;;6338759;22;20315;-79
2022/10/18 00:29:58;;;;;;;54.92;20.08;;;10.80;99.90;;;;;;6339291;22;20044;-78
2022/10/18 00:32:24;;;;;;;38.97;19.52;;;10.80;99.90;;;;;;6339139;22;19994;-80
2022/10/18 00:34:50;;;;;;;42.17;18.58;;;10.70;99.90;;;;;;6311709;22;19997;-80
2022/10/18 00:37:16;;;;;;;50.65;19.83;;;10.70;99.90;;;;;;6339311;22;19994;-82
2022/10/18 00:39:42;;;;;;;40.97;19.67;;;10.70;99.90;;;;;;6338595;22;19994;-80
2022/10/18 00:42:15;;;;;;;45.72;21.70;;;10.70;99.90;;;;;;6338685;22;20404;-79
2022/10/18 00:44:40;;;;;;;47.90;22.77;;;10.70;99.90;;;;;;6338872;22;20036;-81
2022/10/18 00:47:09;;;;;;;47.63;22.73;;;10.60;99.90;;;;;;6310841;22;20014;-80
2022/10/18 00:49:45;;;;;;;44.45;23.00;;;10.60;99.90;;;;;;6339679;22;19991;-82
2022/10/18 00:52:36;;;;;;;46.17;21.08;;;10.60;99.90;;;;;;6340565;22;19987;-80
2022/10/18 00:55:04;;;;;;;38.72;20.05;;;10.50;99.90;;;;;;6340503;22;19995;-81
2022/10/18 00:57:31;;;;;;;41.25;19.13;;;10.50;99.90;;;;;;6312900;22;19995;-80
2022/10/18 00:59:57;;;;;;;35.72;18.73;;;10.50;99.90;;;;;;6340262;22;20070;-79
2022/10/18 01:02:23;;;;;;;29.83;17.65;;;10.40;99.90;;;;;;6340035;22;20083;-79
2022/10/18 01:04:49;;;;;;;31.60;16.88;;;10.40;99.90;;;;;;6339986;22;20303;-80
2022/10/18 01:07:35;;;;;;;38.13;19.20;;;10.40;99.90;;;;;;6312384;22;20003;-79
2022/10/18 01:10:27;;;;;;;29.45;17.55;;;10.40;99.90;;;;;;6340059;22;19994;-81
2022/10/18 01:13:32;;;;;;;32.75;18.20;;;10.40;99.90;;;;;;6340137;22;19998;-80
2022/10/18 01:16:09;;;;;;;31.90;18.25;;;10.30;99.90;;;;;;6280650;22;19995;-79
2022/10/18 01:18:58;;;;;;;32.63;19.05;;;10.30;99.90;;;;;;6340369;22;19987;-80
2022/10/18 01:21:51;;;;;;;33.83;19.05;;;10.30;99.90;;;;;;6339623;22;20342;-80
2022/10/18 01:24:17;;;;;;;33.03;19.38;;;10.20;99.90;;;;;;6261384;22;20441;-80
2022/10/18 01:27:26;;;;;;;39.50;21.33;;;10.10;99.90;;;;;;6339789;22;20078;-79
2022/10/18 01:30:13;;;;;;;42.95;22.33;;;9.80;99.90;;;;;;6304116;22;19999;-78
2022/10/18 01:32:45;;;;;;;42.33;23.52;;;9.60;99.90;;;;;;6312694;22;20304;-81
2022/10/18 01:35:17;;;;;;;39.78;24.15;;;9.40;99.90;;;;;;6340073;22;20418;-79
2022/10/18 01:37:46;;;;;;;45.95;25.15;;;9.30;99.90;;;;;;6340494;22;20074;-80
2022/10/18 01:40:15;;;;;;;43.05;24.02;;;9.30;99.90;;;;;;6339933;22;19987;-79
2022/10/18 01:42:44;;;;;;;46.53;25.70;;;9.20;99.90;;;;;;6339965;22;20090;-80
2022/10/18 01:45:12;;;;;;;43.58;24.95;;;9.10;99.90;;;;;;6312900;22;20354;-81
2022/10/18 01:47:39;;;;;;;48.60;25.95;;;9.00;99.90;;;;;;6340511;22;20070;-81
2022/10/18 01:50:06;;;;;;;48.70;25.90;;;9.00;99.90;;;;;;6340267;22;20001;-82
2022/10/18 01:52:31;;;;;;;49.50;25.85;;;8.90;99.90;;;;;;6312492;22;19991;-83
2022/10/18 01:54:59;;;;;;;46.80;25.77;;;8.90;99.90;;;;;;6340397;22;20044;-79
2022/10/18 01:57:54;;;;;;;43.88;26.45;;;8.90;99.90;;;;;;6339687;22;20411;-79
2022/10/18 02:00:28;;;;;;;42.75;25.52;;;8.90;99.90;;;;;;6339687;22;20012;-80
2022/10/18 02:03:06;;;;;;;46.45;25.60;;;8.80;99.90;;;;;;6312298;22;20003;-80
2022/10/18 02:05:47;;;;;;;54.28;30.67;;;8.80;99.90;;;;;;6339677;22;20079;-80
2022/10/18 02:08:31;;;;;;;53.63;31.50;;;8.80;99.90;;;;;;6312340;22;20081;-83
2022/10/18 02:11:00;;;;;;;58.95;31.95;;;8.70;99.90;;;;;;6339709;22;20078;-81
2022/10/18 02:13:31;;;;;;;55.28;31.10;;;8.70;99.90;;;;;;6340065;22;19991;-81
2022/10/18 02:16:08;;;;;;;60.25;31.45;;;8.70;99.90;;;;;;6339648;22;20003;-79
2022/10/18 02:18:41;;;;;;;48.38;30.15;;;8.70;99.90;;;;;;6339828;22;20002;-82
2022/10/18 02:21:10;;;;;;;48.50;29.48;;;8.70;99.90;;;;;;6339462;22;20068;-79
2022/10/18 02:23:37;;;;;;;48.85;28.35;;;8.60;99.90;;;;;;6339853;22;19995;-82
2022/10/18 02:26:04;;;;;;;48.22;28.38;;;8.60;99.90;;;;;;6340096;22;20002;-80
2022/10/18 02:28:30;;;;;;;63.50;29.52;;;8.50;99.90;;;;;;6339509;22;20014;-81
2022/10/18 02:31:05;;;;;;;49.22;28.45;;;8.50;99.90;;;;;;6339085;22;20304;-80
2022/10/18 02:33:34;;;;;;;53.28;31.55;;;8.50;99.90;;;;;;6312182;22;20022;-80
2022/10/18 02:36:08;;;;;;;67.00;37.08;;;8.50;99.90;;;;;;6339632;22;20419;-81
2022/10/18 02:38:34;;;;;;;76.97;38.60;;;8.60;99.90;;;;;;6311883;22;20423;-81
2022/10/18 02:41:00;;;;;;;67.75;39.47;;;8.60;99.90;;;;;;6339511;22;20074;-83
2022/10/18 02:43:26;;;;;;;69.22;38.70;;;8.60;99.90;;;;;;6311923;22;20048;-80
2022/10/18 02:45:52;;;;;;;67.70;38.13;;;8.60;99.90;;;;;;6339355;22;19995;-82
2022/10/18 02:48:17;;;;;;;71.05;38.35;;;8.50;99.90;;;;;;6311930;22;19999;-79
2022/10/18 02:50:43;;;;;;;72.55;38.22;;;8.50;99.90;;;;;;6339589;22;20070;-81
2022/10/18 02:53:09;;;;;;;61.35;35.40;;;8.50;99.90;;;;;;6339309;22;19994;-80
2022/10/18 02:55:35;;;;;;;63.85;33.90;;;8.50;99.90;;;;;;6339552;22;20061;-81
2022/10/18 02:58:00;;;;;;;59.88;34.42;;;8.50;99.90;;;;;;6339404;22;19995;-82
2022/10/18 03:00:26;;;;;;;61.90;33.83;;;8.50;99.90;;;;;;6339115;22;20014;-82
2022/10/18 03:02:52;;;;;;;63.80;35.63;;;8.50;99.90;;;;;;6312139;22;20029;-80
2022/10/18 03:05:18;;;;;;;60.58;34.28;;;8.50;99.90;;;;;;6339822;22;20040;-80
2022/10/18 03:07:44;;;;;;;68.65;37.15;;;8.50;99.90;;;;;;6339669;22;19999;-81
2022/10/18 03:10:09;;;;;;;71.32;35.75;;;8.50;99.90;;;;;;6339578;22;19998;-82
2022/10/18 03:12:35;;;;;;;57.50;32.60;;;8.40;99.90;;;;;;6338815;22;20365;-81
2022/10/18 03:15:01;;;;;;;59.10;31.23;;;8.40;99.90;;;;;;6339469;22;19998;-79
2022/10/18 03:17:27;;;;;;;66.60;34.67;;;8.40;99.90;;;;;;6311927;22;19995;-82
2022/10/18 03:19:53;;;;;;;53.40;29.88;;;8.40;99.90;;;;;;6311792;22;19994;-80
2022/10/18 03:22:18;;;;;;;62.13;31.88;;;8.40;99.90;;;;;;6339915;22;19990;-81
2022/10/18 03:24:44;;;;;;;57.50;29.98;;;8.40;99.90;;;;;;6339708;22;20015;-81
2022/10/18 03:27:10;;;;;;;74.53;31.48;;;8.40;99.90;;;;;;6339523;22;20003;-79
2022/10/18 03:29:36;;;;;;;53.75;30.20;;;8.40;99.90;;;;;;6312039;22;20093;-84
2022/10/18 03:32:01;;;;;;;57.38;28.30;;;8.40;99.90;;;;;;6339106;22;20361;-80
2022/10/18 03:34:27;;;;;;;58.72;28.63;;;8.40;99.90;;;;;;6339174;22;20103;-82
2022/10/18 03:36:53;;;;;;;56.55;30.35;;;8.40;99.90;;;;;;6311380;22;20009;-79
2022/10/18 03:39:19;;;;;;;61.22;28.30;;;8.40;99.90;;;;;;6339309;22;19991;-81
2022/10/18 03:41:45;;;;;;;53.75;27.73;;;8.40;99.90;;;;;;6338481;22;20060;-82
2022/10/18 03:44:11;;;;;;;52.95;28.50;;;8.40;99.90;;;;;;6339181;22;20084;-81
2022/10/18 03:46:36;;;;;;;51.65;25.63;;;8.50;99.90;;;;;;6339005;22;20002;-80
2022/10/18 03:49:02;;;;;;;59.08;26.77;;;8.50;99.90;;;;;;6338772;22;20022;-79
2022/10/18 03:51:28;;;;;;;53.03;26.92;;;8.50;99.90;;;;;;6311519;22;19995;-82
2022/10/18 03:53:54;;;;;;;48.05;26.15;;;8.50;99.90;;;;;;6338715;22;19999;-79
2022/10/18 03:56:19;;;;;;;48.15;25.60;;;8.40;99.90;;;;;;6339004;22;19998;-80
2022/10/18 03:58:45;;;;;;;50.55;25.70;;;8.40;99.90;;;;;;6339184;22;19991;-78
2022/10/18 04:01:11;;;;;;;54.83;28.05;;;8.40;99.90;;;;;;6310876;22;19995;-81
2022/10/18 04:03:37;;;;;;;66.18;29.08;;;8.40;99.90;;;;;;6338873;22;19991;-81
2022/10/18 04:06:03;;;;;;;65.35;32.95;;;8.30;99.90;;;;;;6338974;22;20060;-80
2022/10/18 04:08:29;;;;;;;59.22;31.85;;;8.30;99.90;;;;;;6338575;22;19991;-80
2022/10/18 04:10:55;;;;;;;61.97;27.88;;;8.30;99.90;;;;;;6339333;22;19991;-79
2022/10/18 04:13:20;;;;;;;63.28;29.65;;;8.30;99.90;;;;;;6311135;22;20002;-80
2022/10/18 04:15:46;;;;;;;85.35;43.25;;;8.20;99.90;;;;;;6338680;22;20340;-81
2022/10/18 04:18:12;;;;;;;61.92;31.80;;;8.00;99.90;;;;;;6311409;22;20121;-80
2022/10/18 04:20:38;;;;;;;66.25;31.80;;;7.90;99.90;;;;;;6338303;22;19991;-79
2022/10/18 04:23:03;;;;;;;57.38;29.17;;;7.80;99.90;;;;;;6338712;22;20006;-82
2022/10/18 04:25:29;;;;;;;53.63;28.02;;;7.80;99.90;;;;;;6313044;22;20003;-81
2022/10/18 04:27:55;;;;;;;52.30;28.25;;;7.80;99.90;;;;;;6340972;22;20001;-79
2022/10/18 04:30:21;;;;;;;48.20;28.40;;;7.60;99.90;;;;;;6340719;22;19998;-81
2022/10/18 04:32:46;;;;;;;52.17;27.92;;;7.60;99.90;;;;;;6313583;22;19991;-81
2022/10/18 04:35:12;;;;;;;55.35;28.15;;;7.50;99.90;;;;;;6313504;22;20001;-79
2022/10/18 04:37:38;;;;;;;54.58;28.10;;;7.50;99.90;;;;;;6340720;22;19995;-81
2022/10/18 04:40:04;;;;;;;66.97;38.03;;;7.50;99.90;;;;;;6340871;22;19995;-80
2022/10/18 04:42:30;;;;;;;63.80;36.15;;;7.40;99.90;;;;;;6312828;22;20038;-79
2022/10/18 04:44:56;;;;;;;59.10;31.92;;;7.40;99.90;;;;;;6312827;22;20422;-80
2022/10/18 04:47:22;;;;;;;60.20;29.73;;;7.40;99.90;;;;;;6340355;22;20077;-79
2022/10/18 04:49:47;;;;;;;55.22;30.02;;;7.40;99.90;;;;;;6340490;22;19994;-82
2022/10/18 04:52:13;;;;;;;64.95;33.50;;;7.40;99.90;;;;;;6339902;22;20465;-80
2022/10/18 04:54:39;;;;;;;59.25;35.10;;;7.40;99.90;;;;;;6340229;22;20404;-79
2022/10/18 04:57:05;;;;;;;67.32;34.72;;;7.30;99.90;;;;;;6340563;22;20426;-81
2022/10/18 04:59:30;;;;;;;66.22;35.63;;;7.30;99.90;;;;;;6312806;22;20081;-81
2022/10/18 05:01:56;;;;;;;69.60;34.35;;;7.30;99.90;;;;;;6339969;22;20355;-80
2022/10/18 05:04:22;;;;;;;65.07;35.28;;;7.30;99.90;;;;;;6312822;22;20396;-81
2022/10/18 05:06:48;;;;;;;60.50;34.20;;;7.20;99.90;;;;;;6340105;22;20064;-80
2022/10/18 05:09:13;;;;;;;70.35;35.85;;;7.20;99.90;;;;;;6312882;22;19998;-81
2022/10/18 05:11:39;;;;;;;64.78;35.72;;;7.20;99.90;;;;;;6340187;22;20476;-80
2022/10/18 05:14:05;;;;;;;72.50;39.28;;;7.20;99.90;;;;;;6340289;22;19995;-81
2022/10/18 05:16:31;;;;;;;73.82;38.58;;;7.20;99.90;;;;;;6340615;22;20006;-80
2022/10/18 05:18:57;;;;;;;82.45;38.28;;;7.20;99.90;;;;;;6312610;22;20044;-81
2022/10/18 05:21:23;;;;;;;66.60;34.33;;;7.20;99.90;;;;;;6312490;22;19998;-80
2022/10/18 05:23:49;;;;;;;71.85;38.40;;;7.10;99.90;;;;;;6340164;22;19999;-79
2022/10/18 05:26:15;;;;;;;78.45;37.25;;;7.00;99.90;;;;;;6340409;22;20013;-80
2022/10/18 05:28:40;;;;;;;66.57;36.17;;;6.90;99.90;;;;;;6340279;22;19991;-81
2022/10/18 05:31:09;;;;;;;65.97;36.15;;;6.80;99.90;;;;;;6339760;22;20311;-79
2022/10/18 05:33:35;;;;;;;77.53;42.63;;;6.80;99.90;;;;;;6339424;22;19994;-79
2022/10/18 05:36:01;;;;;;;101.55;60.33;;;6.90;99.90;;;;;;6339257;22;20013;-81
2022/10/18 05:38:29;;;;;;;112.25;67.10;;;6.90;99.90;;;;;;6340012;22;20370;-80
2022/10/18 05:40:55;;;;;;;94.18;54.45;;;7.00;99.90;;;;;;6339741;22;19998;-80
2022/10/18 05:43:21;;;;;;;89.47;46.17;;;6.90;99.90;;;;;;6340196;22;19995;-81
2022/10/18 05:45:48;;;;;;;77.53;44.85;;;6.90;99.90;;;;;;6312333;22;20330;-79
2022/10/18 05:48:14;;;;;;;83.85;42.20;;;7.00;99.90;;;;;;6339768;22;20453;-81
2022/10/18 05:50:40;;;;;;;69.75;39.90;;;7.10;99.90;;;;;;6340136;22;20070;-78
2022/10/18 05:53:05;;;;;;;72.75;40.13;;;7.10;99.90;;;;;;6339919;22;20001;-79
2022/10/18 05:55:31;;;;;;;75.45;43.38;;;7.20;99.90;;;;;;6339510;22;20018;-79
2022/10/18 05:57:57;;;;;;;84.38;48.60;;;7.30;99.90;;;;;;6340029;22;19991;-77
2022/10/18 06:00:22;;;;;;;80.50;47.38;;;7.40;99.90;;;;;;6339834;22;20001;-77
2022/10/18 06:02:48;;;;;;;91.47;48.90;;;7.40;99.90;;;;;;6339259;22;20048;-78
2022/10/18 06:05:14;;;;;;;86.10;47.90;;;7.40;99.90;;;;;;6338875;22;19995;-79
2022/10/18 06:07:40;;;;;;;88.85;46.42;;;7.60;99.90;;;;;;6339554;22;19994;-79
2022/10/18 06:10:06;;;;;;;80.90;44.33;;;7.70;99.90;;;;;;6311096;22;19999;-78
2022/10/18 06:12:32;;;;;;;79.93;43.35;;;7.80;99.90;;;;;;6340077;22;20002;-78
2022/10/18 06:14:57;;;;;;;78.47;42.78;;;7.80;99.90;;;;;;6339709;22;19991;-78
2022/10/18 06:17:23;;;;;;;74.55;42.20;;;7.90;99.90;;;;;;6312321;22;20003;-79
2022/10/18 06:19:49;;;;;;;91.28;47.50;;;8.10;99.90;;;;;;6339311;22;20296;-78
2022/10/18 06:22:15;;;;;;;94.78;46.92;;;8.20;99.90;;;;;;6339439;22;19990;-79
2022/10/18 06:24:40;;;;;;;88.15;41.05;;;8.30;99.90;;;;;;6337394;22;19998;-79
2022/10/18 06:27:09;;;;;;;91.95;39.15;;;8.50;99.90;;;;;;6337521;22;20074;-78
2022/10/18 06:29:36;;;;;;;76.68;37.95;;;8.70;99.90;;;;;;6339060;22;20049;-80
2022/10/18 06:32:03;;;;;;;75.85;39.08;;;8.80;99.90;;;;;;6338840;22;19987;-80
2022/10/18 06:34:29;;;;;;;72.53;37.80;;;9.00;99.90;;;;;;6339457;22;19991;-79
2022/10/18 06:36:55;;;;;;;71.55;38.10;;;9.10;99.90;;;;;;6339417;22;20007;-79
2022/10/18 06:39:20;;;;;;;73.57;36.63;;;9.20;99.90;;;;;;6310651;22;19998;-80
2022/10/18 06:41:46;;;;;;;84.28;41.53;;;9.40;99.90;;;;;;6338294;22;20010;-78
2022/10/18 06:44:13;;;;;;;83.97;39.85;;;9.60;99.90;;;;;;6311175;22;19999;-82
2022/10/18 06:46:43;;;;;;;97.57;47.60;;;9.80;99.90;;;;;;6338806;22;20029;-82
2022/10/18 06:49:10;;;;;;;86.68;41.67;;;10.00;99.90;;;;;;6338851;22;20032;-82
2022/10/18 06:51:36;;;;;;;141.20;58.42;;;10.10;99.90;;;;;;6339062;22;19999;-80
2022/10/18 06:54:02;;;;;;;79.38;38.67;;;10.20;99.90;;;;;;6339330;22;19995;-80
2022/10/18 06:56:28;;;;;;;73.32;35.60;;;10.40;99.90;;;;;;6311810;22;20483;-82
2022/10/18 06:58:54;;;;;;;69.53;32.13;;;10.50;99.90;;;;;;6339676;22;19995;-80
2022/10/18 07:01:20;;;;;;;71.68;27.13;;;10.70;99.90;;;;;;6339544;22;19995;-81
2022/10/18 07:03:48;;;;;;;58.50;24.05;;;10.80;99.90;;;;;;6311727;22;19991;-80
2022/10/18 07:06:17;;;;;;;51.85;24.75;;;10.90;99.90;;;;;;6339549;22;20514;-81
2022/10/18 07:08:43;;;;;;;57.92;24.13;;;11.00;99.90;;;;;;6339209;22;19991;-81
2022/10/18 07:11:15;;;;;;;41.17;21.80;;;11.10;99.90;;;;;;6311567;22;19995;-79
2022/10/18 07:13:41;;;;;;;40.03;22.33;;;11.30;99.90;;;;;;6339372;22;20303;-79
2022/10/18 07:16:09;;;;;;;42.15;21.90;;;11.30;99.90;;;;;;6339203;22;19994;-81
2022/10/18 07:18:37;;;;;;;52.15;23.65;;;11.30;99.90;;;;;;6339119;22;20073;-80
2022/10/18 07:21:11;;;;;;;43.60;22.85;;;11.50;99.90;;;;;;6339327;22;19995;-81
2022/10/18 07:23:39;;;;;;;47.65;22.17;;;11.60;99.90;;;;;;6311584;22;19994;-79
2022/10/18 07:26:18;;;;;;;55.95;25.85;;;11.60;99.90;;;;;;6338665;22;20415;-81
2022/10/18 07:28:46;;;;;;;49.85;25.60;;;11.70;99.90;;;;;;6339473;22;20033;-80
2022/10/18 07:31:12;;;;;;;47.00;22.60;;;11.90;99.90;;;;;;6311674;22;19991;-78
2022/10/18 07:33:39;;;;;;;47.25;22.42;;;12.00;99.90;;;;;;6339232;22;19987;-79
2022/10/18 07:36:07;;;;;;;45.25;23.88;;;12.10;99.90;;;;;;6339029;22;20002;-81
2022/10/18 07:38:33;;;;;;;57.38;24.77;;;12.20;99.90;;;;;;6339142;22;20017;-78
2022/10/18 07:41:00;;;;;;;53.35;25.10;;;12.30;99.90;;;;;;6339390;22;19991;-82
2022/10/18 07:43:29;;;;;;;47.22;23.98;;;12.30;99.90;;;;;;6339363;22;20005;-82
2022/10/18 07:45:57;;;;;;;45.78;26.60;;;12.30;99.90;;;;;;6339323;22;20010;-80
2022/10/18 07:48:24;;;;;;;43.30;25.05;;;12.40;99.90;;;;;;6339833;22;19987;-78
2022/10/18 07:50:50;;;;;;;47.78;25.52;;;12.50;99.90;;;;;;6339498;22;19994;-77
2022/10/18 07:53:15;;;;;;;37.00;24.02;;;12.60;99.90;;;;;;6311701;22;19998;-77
2022/10/18 07:55:42;;;;;;;46.65;25.83;;;12.70;99.90;;;;;;6339349;22;19998;-78
2022/10/18 07:58:07;;;;;;;43.40;24.17;;;12.80;99.90;;;;;;6339370;22;20053;-78
2022/10/18 08:00:33;;;;;;;46.38;23.08;;;12.90;99.90;;;;;;6340666;22;19993;-80
2022/10/18 08:02:59;;;;;;;38.20;21.17;;;12.90;99.90;;;;;;6313325;22;19991;-81
2022/10/18 08:05:57;;;;;;;44.25;23.15;;;13.00;99.90;;;;;;6313202;22;19999;-82
2022/10/18 08:11:29;;;;;;;49.13;23.77;;;13.20;99.90;;;;;;6122840;23;20005;-81
2022/10/18 08:14:03;;;;;;;44.10;21.23;;;13.20;99.90;;;;;;6098264;23;20671;-81
2022/10/18 08:16:30;;;;;;;42.42;21.27;;;13.30;99.90;;;;;;6123110;23;20009;-81
2022/10/18 08:19:02;;;;;;;37.33;21.25;;;13.50;99.90;;;;;;6098289;23;20002;-81
2022/10/18 08:21:27;;;;;;;46.35;22.13;;;13.60;99.90;;;;;;6098373;23;20427;-81
2022/10/18 08:23:53;;;;;;;40.13;21.60;;;13.60;99.90;;;;;;6124135;23;20021;-82
2022/10/18 08:26:21;;;;;;;43.08;20.27;;;13.70;99.90;;;;;;6142117;23;20013;-81
2022/10/18 08:28:48;;;;;;;35.33;20.52;;;13.90;99.90;;;;;;6125107;23;19998;-82
2022/10/18 08:31:19;;;;;;;34.30;19.92;;;14.00;99.90;;;;;;6126207;23;20025;-84
2022/10/18 08:33:46;;;;;;;37.65;18.85;;;14.20;99.90;;;;;;6101258;23;20379;-83
2022/10/18 08:36:14;;;;;;;31.63;20.45;;;14.20;99.90;;;;;;6100477;23;20013;-86
2022/10/18 08:38:41;;;;;;;29.23;17.67;;;14.40;99.90;;;;;;6125431;23;19998;-86
2022/10/18 08:41:22;;;;;;;29.48;17.02;;;14.40;99.90;;;;;;6125196;23;20014;-86
2022/10/18 08:44:14;;;;;;;26.92;16.02;;;14.50;99.90;;;;;;6100989;23;20004;-86
2022/10/18 08:46:45;;;;;;;27.85;16.00;;;14.70;99.90;;;;;;6276093;22;20011;-85
2022/10/18 08:49:27;;;;;;;26.60;15.23;;;14.80;99.90;;;;;;6322265;22;19995;-85
2022/10/18 08:51:55;;;;;;;24.65;15.82;;;15.00;99.90;;;;;;6312965;22;19991;-84
2022/10/18 08:55:00;;;;;;;27.45;14.88;;;15.20;99.90;;;;;;6340286;22;19991;-84
2022/10/18 08:57:26;;;;;;;26.02;14.13;;;15.30;98.60;;;;;;6184000;23;20359;-83
2022/10/18 08:59:52;;;;;;;25.33;13.98;;;15.40;98.80;;;;;;6184228;23;20052;-85
2022/10/18 09:02:27;;;;;;;22.15;12.23;;;15.60;99.00;;;;;;6184519;23;19997;-82
2022/10/18 09:05:15;;;;;;;23.52;13.82;;;15.70;95.50;;;;;;6184480;23;19997;-84
2022/10/18 09:07:55;;;;;;;22.13;13.05;;;15.90;94.60;;;;;;6184351;23;20009;-84
2022/10/18 09:10:47;;;;;;;27.23;14.18;;;15.90;94.80;;;;;;6184675;23;19993;-82
2022/10/18 09:13:29;;;;;;;28.05;15.63;;;16.10;98.90;;;;;;6159969;23;20079;-82
2022/10/18 09:16:01;;;;;;;33.80;18.92;;;16.20;92.30;;;;;;6159222;23;20008;-82
2022/10/18 09:18:58;;;;;;;34.15;17.65;;;16.40;92.80;;;;;;6159376;23;20007;-84
2022/10/18 09:21:40;;;;;;;27.98;16.30;;;16.70;93.20;;;;;;6159157;23;19993;-81
2022/10/18 09:24:17;;;;;;;22.55;15.48;;;16.90;94.50;;;;;;6184196;23;20001;-83
2022/10/18 09:26:46;;;;;;;25.08;15.05;;;17.10;91.40;;;;;;6189160;23;20008;-83
2022/10/18 09:29:39;;;;;;;37.28;19.33;;;17.30;92.10;;;;;;6189078;23;20000;-84
2022/10/18 09:32:16;;;;;;;37.13;18.88;;;17.50;91.10;;;;;;6188703;23;20001;-84
2022/10/18 09:34:52;;;;;;;39.28;23.05;;;17.80;91.50;;;;;;6312115;22;20407;-84
2022/10/18 09:37:20;;;;;;;37.17;17.83;;;18.00;88.80;;;;;;6312697;22;20064;-83
2022/10/18 09:39:49;;;;;;;31.50;16.45;;;18.10;86.00;;;;;;6339490;22;19991;-83
2022/10/18 09:42:38;;;;;;;27.63;14.82;;;18.30;89.90;;;;;;6312274;22;20038;-86
2022/10/18 09:45:26;;;;;;;32.80;16.88;;;18.50;86.60;;;;;;6340205;22;20430;-84
2022/10/18 09:48:25;;;;;;;33.33;17.65;;;18.90;84.90;;;;;;6340572;22;19998;-81
2022/10/18 09:51:02;;;;;;;22.13;14.68;;;19.10;80.60;;;;;;6289762;22;20009;-83
2022/10/18 09:53:46;;;;;;;23.02;14.35;;;19.40;79.50;;;;;;6340009;22;19987;-81
2022/10/18 09:56:33;;;;;;;34.50;15.43;;;19.40;75.20;;;;;;6340093;22;19995;-85
2022/10/18 09:58:59;;;;;;;31.95;14.80;;;19.50;75.40;;;;;;6312181;22;19995;-81
2022/10/18 10:01:28;;;;;;;37.33;17.08;;;19.80;73.40;;;;;;6312452;22;19995;-85
2022/10/18 10:03:54;;;;;;;27.48;15.32;;;20.10;75.40;;;;;;6339886;22;20022;-83
2022/10/18 10:06:33;;;;;;;26.52;14.48;;;20.30;72.40;;;;;;6311919;22;20308;-81
2022/10/18 10:09:13;;;;;;;17.42;11.60;;;20.40;69.60;;;;;;6314788;22;20001;-83
2022/10/18 10:11:45;;;;;;;21.65;11.18;;;20.60;65.60;;;;;;6312765;22;20044;-83
2022/10/18 10:14:25;;;;;;;17.20;10.38;;;20.70;64.40;;;;;;6340294;22;20066;-83
2022/10/18 10:17:02;;;;;;;16.25;10.20;;;20.90;64.40;;;;;;6340239;22;19995;-84
2022/10/18 10:19:55;;;;;;;14.43;10.05;;;21.10;63.90;;;;;;6312299;22;19991;-81
2022/10/18 10:22:34;;;;;;;18.10;10.77;;;21.10;59.00;;;;;;6339955;22;20002;-85
2022/10/18 10:25:00;;;;;;;17.75;10.77;;;21.20;58.50;;;;;;6339939;22;19995;-83
2022/10/18 10:27:39;;;;;;;20.13;11.10;;;21.50;64.00;;;;;;6339926;22;20031;-83
2022/10/18 10:30:27;;;;;;;15.55;11.35;;;21.60;59.80;;;;;;6339963;22;20007;-83
2022/10/18 10:32:54;;;;;;;17.60;11.35;;;21.70;57.80;;;;;;6340353;22;19994;-85
2022/10/18 10:35:41;;;;;;;18.48;10.85;;;21.60;58.40;;;;;;6339688;22;20358;-83
2022/10/18 10:38:25;;;;;;;15.40;10.75;;;21.80;58.20;;;;;;6338892;22;20346;-83
2022/10/18 10:40:51;;;;;;;16.60;11.43;;;21.90;59.20;;;;;;6339796;22;20002;-82
2022/10/18 10:43:24;;;;;;;16.83;10.68;;;;;;;;;;6340258;22;20025;-82
2022/10/18 10:46:13;;;;;;;28.80;16.67;;;22.30;93.50;;;;;;6339902;22;20029;-85
2022/10/18 10:48:46;;;;;;;17.55;9.82;;;22.30;54.50;;;;;;6339892;22;20065;-83
2022/10/18 10:51:13;;;;;;;17.52;11.32;;;22.00;54.00;;;;;;6340259;22;20396;-83
2022/10/18 10:53:44;;;;;;;14.20;10.68;;;22.00;56.00;;;;;;6312186;22;19998;-84
2022/10/18 10:56:10;;;;;;;;;;;;;;;;;;6340414;22;20415;-82
2022/10/18 10:58:39;;;;;;;19.83;10.63;;;22.50;94.80;;;;;;6312278;22;19901;-83
2022/10/18 11:01:28;;;;;;;19.25;11.55;;;22.10;52.60;;;;;;6312237;22;19998;-83
2022/10/18 11:03:57;;;;;;;16.38;10.60;;;22.40;91.90;;;;;;6339674;22;19990;-86
2022/10/18 11:07:01;;;;;;;17.00;10.13;;;22.50;92.70;;;;;;6339781;22;19999;-82
2022/10/18 11:09:30;;;;;;;16.13;10.02;;;;;;;;;;6339728;22;19994;-84
2022/10/18 11:12:01;;;;;;;15.55;10.30;;;;;;;;;;6311795;22;19991;-83
2022/10/18 11:14:34;;;;;;;26.80;10.63;;;22.80;55.50;;;;;;6339324;22;19987;-83
2022/10/18 11:17:33;;;;;;;17.98;10.65;;;22.90;54.90;;;;;;6312071;22;20003;-82
2022/10/18 11:20:10;;;;;;;34.35;12.68;;;;;;;;;;6339163;22;20001;-82
2022/10/18 11:22:54;;;;;;;20.58;11.73;;;23.30;53.20;;;;;;6311892;22;20005;-82
2022/10/18 11:25:24;;;;;;;20.63;12.45;;;23.30;49.10;;;;;;6312143;22;20002;-84
2022/10/18 11:28:09;;;;;;;26.65;11.82;;;23.30;51.40;;;;;;6339273;22;19999;-82
2022/10/18 11:31:18;;;;;;;16.48;11.25;;;23.30;52.70;;;;;;6311856;22;20307;-85
2022/10/18 11:33:56;;;;;;;26.35;15.25;;;23.20;51.50;;;;;;6270053;22;19998;-83
2022/10/18 11:36:43;;;;;;;16.38;11.57;;;23.30;53.40;;;;;;6339868;22;19999;-82
2022/10/18 11:39:20;;;;;;;16.08;11.57;;;23.30;47.90;;;;;;6312233;22;19991;-82
2022/10/18 11:41:57;;;;;;;15.45;10.85;;;23.40;50.70;;;;;;6339140;22;20007;-83
2022/10/18 11:44:32;;;;;;;19.20;10.88;;;23.20;47.20;;;;;;6312067;22;20299;-82
2022/10/18 11:47:10;;;;;;;18.70;11.10;;;23.20;49.70;;;;;;6339655;22;20002;-83
2022/10/18 11:49:43;;;;;;;17.85;11.23;;;23.10;52.00;;;;;;6339620;22;19998;-83
2022/10/18 11:52:32;;;;;;;18.63;10.65;;;23.30;53.00;;;;;;6339397;22;19987;-85
2022/10/18 11:55:27;;;;;;;20.63;11.07;;;23.30;51.00;;;;;;6339162;22;20303;-83
2022/10/18 11:58:17;;;;;;;14.48;11.40;;;23.40;50.10;;;;;;6339347;22;20044;-84
2022/10/18 12:01:20;;;;;;;16.20;10.88;;;23.30;50.20;;;;;;6339732;22;19993;-85
2022/10/18 12:04:01;;;;;;;19.00;11.65;;;23.30;51.40;;;;;;6258276;22;20029;-84
2022/10/18 12:06:35;;;;;;;19.25;10.90;;;23.30;46.60;;;;;;6311592;22;20059;-83
2022/10/18 12:09:07;;;;;;;24.92;10.50;;;23.20;49.50;;;;;;6311831;22;19995;-83
2022/10/18 12:11:56;;;;;;;28.88;10.10;;;23.20;50.20;;;;;;6311850;22;19995;-83
2022/10/18 12:14:39;;;;;;;23.15;9.90;;;23.10;50.50;;;;;;6339082;22;19994;-86
2022/10/18 12:17:44;;;;;;;13.80;9.07;;;23.10;50.90;;;;;;6311652;22;20006;-83
2022/10/18 12:20:17;;;;;;;19.02;11.45;;;23.10;49.50;;;;;;6305806;22;19991;-79
2022/10/18 12:22:52;;;;;;;19.15;10.38;;;23.30;48.10;;;;;;6339964;22;20072;-83
2022/10/18 12:25:18;;;;;;;17.10;10.90;;;23.30;49.00;;;;;;6339505;22;20404;-82
2022/10/18 12:27:59;;;;;;;22.02;12.82;;;23.30;50.20;;;;;;6338401;22;20003;-84
2022/10/18 12:30:49;;;;;;;14.90;10.93;;;23.30;50.10;;;;;;6311496;22;19998;-83
2022/10/18 12:33:22;;;;;;;14.90;8.93;;;23.10;47.50;;;;;;6338942;22;20009;-81
2022/10/18 12:36:15;;;;;;;15.32;9.07;;;23.00;48.80;;;;;;6311657;22;20002;-82
2022/10/18 12:38:44;;;;;;;13.23;10.23;;;22.90;49.30;;;;;;6338838;22;20357;-82
2022/10/18 12:41:31;;;;;;;17.15;10.15;;;22.90;49.20;;;;;;6338718;22;20345;-82
2022/10/18 12:44:28;;;;;;;13.90;9.20;;;22.90;48.60;;;;;;6338919;22;20037;-82
2022/10/18 12:46:59;;;;;;;14.90;9.30;;;23.00;50.60;;;;;;6340617;22;20005;-83
2022/10/18 12:49:35;;;;;;;15.00;8.80;;;23.10;49.90;;;;;;6313411;22;19995;-83
2022/10/18 12:52:26;;;;;;;15.18;8.50;;;23.00;49.60;;;;;;6313285;22;19999;-82
2022/10/18 12:55:12;;;;;;;15.73;9.55;;;23.00;47.80;;;;;;6159458;23;20023;-82
2022/10/18 12:57:53;;;;;;;16.92;8.68;;;23.10;49.90;;;;;;6159724;23;20008;-83
2022/10/18 13:00:31;;;;;;;12.80;9.02;;;23.10;48.10;;;;;;6184730;23;20029;-82